Terminal Aerodrome Forecast
Issued by NWS

Home | Current Version | Previous Version | Text Only | Print | Product List | Glossary On
Versions: 1 2 3 4 5 6 7 8 9 10 11 12 13 14 15 16 17 18 19 20 21 22 23 24 25 26 27 28 29 30 31 32 33 34 35 36
000
FTUS43 KLOT 250535
TAFORD
TAF
KORD 250535Z 2506/2612 06012G18KT P6SM VCSH BKN050 OVC060
     FM251100 08012G18KT P6SM VCSH OVC045
     FM251400 08015G20KT 5SM -RA BR SCT025 OVC035
     FM251700 08016G23KT 4SM -RA BR OVC009
     FM252200 06015G23KT P6SM -SHRA OVC020
     FM260100 04012G18KT P6SM FEW020 BKN035
     FM260600 02009KT P6SM SKC=

USA.gov is the U.S. government's official web portal to all federal, state and local government web resources and services.